Bookmark and Share
Track history (hours):
 

N.dadayli

Last reported at 2014-Apr-22 12:31 UTC. Time now 2014-Apr-24 13:58 UTC.
Position N 37°37' E 008°54'.

Length 101 m; draft 7.3 m.

Type: Ship. MMSI: 271000768.

NotesDate/timePositionNaut miles runAvg speedWind from/ knotsBaromVisibWave heightAir tempDewpointWater temp
2014-Apr-22 12:31N 37°37' E 008°54'1211.8
2014-Apr-22 11:30N 37°37' E 009°09'1111.7
2014-Apr-22 10:34N 37°39' E 009°23'1411.8
2014-Apr-22 09:23N 37°40' E 009°41'2212.0
2014-Apr-22 07:34N 37°38' E 010°08'1211.6
2014-Apr-22 06:34N 37°37' E 010°23'2711.2
2014-Apr-22 04:12N 37°31' E 010°55'711.4
2014-Apr-22 03:34N 37°29' E 011°04'1110.9
2014-Apr-22 02:33N 37°25' E 011°17'1111.1
2014-Apr-22 01:33N 37°20' E 011°29'2711.7
2014-Apr-21 23:13N 37°08' E 012°01'4611.6
2014-Apr-21 19:18N 36°54' E 012°55'811.5
2014-Apr-21 18:34N 36°51' E 013°05'1111.2
2014-Apr-21 17:33N 36°48' E 013°18'1111.2
2014-Apr-21 16:33N 36°44' E 013°31'1111.3
2014-Apr-21 15:34N 36°40' E 013°45'1111.5
2014-Apr-21 14:34N 36°37' E 013°58'1111.2
2014-Apr-21 13:34N 36°33' E 014°12'1110.8
2014-Apr-21 12:34N 36°30' E 014°25'1010.4
2014-Apr-21 11:34N 36°26' E 014°37'  
2014-Apr-17 15:34N 41°17' E 029°26'  
2014-Apr-15 10:34N 41°16' E 029°32'  

Dump ship's entire track history

sailing weather and tide predictions

N.dadayli — TCCW7 — position and weather